createdAt,value
2022-12-22T00:00:31.367Z,99829.16
2022-12-22T00:03:18.586Z,99835.53
2022-12-22T00:06:06.769Z,99830.97
2022-12-22T00:08:53.357Z,99836.31
2022-12-22T00:11:40.165Z,99826.47
2022-12-22T00:14:29.070Z,99825.63
2022-12-22T00:17:20.628Z,99828.09
2022-12-22T00:20:07.437Z,99829.25
2022-12-22T00:22:54.371Z,99819.41
2022-12-22T00:25:41.528Z,99823.97
2022-12-22T00:28:34.188Z,99830.72
2022-12-22T00:31:21.367Z,99825.41
2022-12-22T00:34:08.473Z,99818.28
2022-12-22T00:36:56.408Z,99814.72
2022-12-22T00:39:44.354Z,99805.94
2022-12-22T00:42:34.692Z,99807.06
2022-12-22T00:45:23.606Z,99823.22
2022-12-22T00:48:13.112Z,99811.47
2022-12-22T00:51:01.413Z,99804.41
2022-12-22T00:53:49.052Z,99800.75
2022-12-22T00:56:35.888Z,99789.47
2022-12-22T00:59:22.568Z,99795.53
2022-12-22T01:02:09.997Z,99794.81
2022-12-22T01:04:57.105Z,99780.09
2022-12-22T01:07:45.733Z,99785.00
2022-12-22T01:10:34.037Z,99774.28
2022-12-22T01:13:32.331Z,99777.75
2022-12-22T01:16:21.157Z,99773.53
2022-12-22T01:19:08.693Z,99771.81
2022-12-22T01:21:58.121Z,99771.72
2022-12-22T01:24:48.401Z,99768.19
2022-12-22T01:27:36.093Z,99761.22
2022-12-22T01:30:23.148Z,99746.38
2022-12-22T01:33:10.160Z,99753.97
2022-12-22T01:35:56.957Z,99763.69
2022-12-22T01:38:44.581Z,99754.06
2022-12-22T01:41:38.218Z,99735.34
2022-12-22T01:44:37.077Z,99747.66
2022-12-22T01:47:49.661Z,99744.13
2022-12-22T01:50:50.902Z,99742.59
2022-12-22T01:54:03.601Z,99738.34
2022-12-22T01:56:52.945Z,99733.97
2022-12-22T01:59:39.623Z,99727.06
2022-12-22T02:02:27.927Z,99736.38
2022-12-22T02:05:19.377Z,99736.47
2022-12-22T02:08:49.954Z,99739.31
2022-12-22T02:12:24.092Z,99740.38
2022-12-22T02:15:53.055Z,99730.59
2022-12-22T02:19:17.101Z,99727.94
2022-12-22T02:22:53.330Z,99722.78
2022-12-22T02:25:52.154Z,99711.41
2022-12-22T02:28:40.531Z,99708.63
2022-12-22T02:31:27.437Z,99709.53
2022-12-22T02:34:14.130Z,99712.00
2022-12-22T02:37:49.464Z,99704.66
2022-12-22T02:41:04.281Z,99702.09
2022-12-22T02:44:22.135Z,99698.53
2022-12-22T02:47:32.240Z,99693.19
2022-12-22T02:50:39.183Z,99686.91
2022-12-22T02:53:27.279Z,99676.50
2022-12-22T02:56:21.269Z,99672.69
2022-12-22T02:59:08.101Z,99667.53
2022-12-22T03:01:56.172Z,99679.75
2022-12-22T03:04:43.031Z,99671.81
2022-12-22T03:07:29.478Z,99668.13
2022-12-22T03:10:15.999Z,99661.13
2022-12-22T03:13:02.710Z,99663.63
2022-12-22T03:15:49.208Z,99655.50
2022-12-22T03:18:35.961Z,99650.16
2022-12-22T03:21:22.504Z,99641.38
2022-12-22T03:24:08.813Z,99637.75
2022-12-22T03:26:36.554Z,99641.28
2022-12-22T03:29:04.346Z,99632.34
2022-12-22T03:31:32.158Z,99634.81
2022-12-22T03:33:59.921Z,99630.44
2022-12-22T03:36:27.882Z,99630.25
2022-12-22T03:38:55.673Z,99637.31
2022-12-22T03:41:42.367Z,99649.81
2022-12-22T03:44:28.841Z,99646.38
2022-12-22T03:46:56.622Z,99638.44
2022-12-22T03:49:26.133Z,99624.22
2022-12-22T03:51:54.215Z,99632.13
2022-12-22T03:54:26.255Z,99630.44
2022-12-22T03:56:54.567Z,99621.72
2022-12-22T03:59:22.398Z,99615.63
2022-12-22T04:01:53.868Z,99608.47
2022-12-22T04:04:25.275Z,99603.13
2022-12-22T04:06:54.548Z,99613.03
2022-12-22T04:09:22.732Z,99615.63
2022-12-22T04:12:09.247Z,99606.91
2022-12-22T04:14:37.167Z,99609.84
2022-12-22T04:17:07.132Z,99607.09
2022-12-22T04:19:34.906Z,99622.25
2022-12-22T04:22:02.865Z,99609.00
2022-12-22T04:24:30.617Z,99609.00
2022-12-22T04:26:58.366Z,99598.41
2022-12-22T04:29:26.034Z,99599.06
2022-12-22T04:31:53.724Z,99588.50
2022-12-22T04:34:21.512Z,99590.31
2022-12-22T04:36:49.303Z,99577.91
2022-12-22T04:39:17.369Z,99582.38
2022-12-22T04:41:45.213Z,99571.97
2022-12-22T04:44:13.127Z,99582.47
2022-12-22T04:46:40.831Z,99577.22
2022-12-22T04:49:08.632Z,99563.09
2022-12-22T04:51:36.255Z,99558.78
2022-12-22T04:54:04.218Z,99565.78
2022-12-22T04:56:31.968Z,99556.78
2022-12-22T04:58:59.698Z,99558.78
2022-12-22T05:01:27.697Z,99553.53
2022-12-22T05:03:55.411Z,99556.09
2022-12-22T05:06:23.067Z,99566.78
2022-12-22T05:08:50.887Z,99563.38
2022-12-22T05:11:18.693Z,99564.13
2022-12-22T05:13:46.580Z,99564.97
2022-12-22T05:16:17.095Z,99562.25
2022-12-22T05:18:46.237Z,99558.78
2022-12-22T05:21:16.982Z,99547.94
2022-12-22T05:23:45.253Z,99547.06
2022-12-22T05:26:14.754Z,99547.72
2022-12-22T05:28:44.638Z,99559.09
2022-12-22T05:31:32.288Z,99552.88
2022-12-22T05:34:19.909Z,99545.84
2022-12-22T05:36:47.625Z,99542.19
2022-12-22T05:39:15.369Z,99569.41
2022-12-22T05:41:43.079Z,99569.22
2022-12-22T05:44:11.052Z,99555.13
2022-12-22T05:46:38.809Z,99556.16
2022-12-22T05:49:06.616Z,99545.63
2022-12-22T05:51:34.384Z,99556.03
2022-12-22T05:54:02.135Z,99544.50
2022-12-22T05:56:29.810Z,99554.91
2022-12-22T05:58:57.566Z,99547.75
2022-12-22T06:01:25.333Z,99558.44
2022-12-22T06:03:59.489Z,99555.59
2022-12-22T06:06:27.898Z,99563.59
2022-12-22T06:08:55.688Z,99564.56
2022-12-22T06:11:23.364Z,99548.59
2022-12-22T06:13:51.244Z,99555.59
2022-12-22T06:16:19.583Z,99555.69
2022-12-22T06:18:47.355Z,99552.06
2022-12-22T06:21:15.094Z,99544.91
2022-12-22T06:23:42.760Z,99552.91
2022-12-22T06:26:10.705Z,99557.50
2022-12-22T06:28:38.679Z,99560.47
2022-12-22T06:31:06.440Z,99547.53
2022-12-22T06:33:35.065Z,99548.41
2022-12-22T06:36:09.594Z,99549.53
2022-12-22T06:38:37.835Z,99550.66
2022-12-22T06:41:05.789Z,99539.13
2022-12-22T06:43:33.495Z,99550.09
2022-12-22T06:46:01.255Z,99547.41
2022-12-22T06:48:29.161Z,99556.47
2022-12-22T06:51:00.685Z,99551.03
2022-12-22T06:53:28.394Z,99550.69
2022-12-22T06:55:56.043Z,99558.91
2022-12-22T06:58:23.946Z,99559.75
2022-12-22T07:00:51.662Z,99568.53
2022-12-22T07:03:19.608Z,99551.75
2022-12-22T07:05:47.376Z,99556.81
2022-12-22T07:08:15.201Z,99557.94
2022-12-22T07:10:58.107Z,99565.00
2022-12-22T07:13:35.068Z,99555.19
2022-12-22T07:16:05.748Z,99559.94
2022-12-22T07:18:44.645Z,99573.13
2022-12-22T07:21:14.255Z,99558.72
2022-12-22T07:23:42.526Z,99565.97
2022-12-22T07:26:15.785Z,99571.75
2022-12-22T07:28:43.632Z,99574.59
2022-12-22T07:31:12.628Z,99572.50
2022-12-22T07:33:40.688Z,99569.75
2022-12-22T07:36:18.448Z,99577.59
2022-12-22T07:38:49.852Z,99575.00
2022-12-22T07:41:38.586Z,99571.38
2022-12-22T07:44:08.124Z,99576.03
2022-12-22T07:46:39.184Z,99561.66
2022-12-22T07:49:26.514Z,99567.00
2022-12-22T07:51:58.046Z,99569.31
2022-12-22T07:54:27.860Z,99555.72
2022-12-22T07:56:56.054Z,99539.72
2022-12-22T07:59:24.080Z,99552.72
2022-12-22T08:01:52.210Z,99540.09
2022-12-22T08:04:22.091Z,99545.19
2022-12-22T08:06:50.304Z,99535.34
2022-12-22T08:09:21.774Z,99538.59
2022-12-22T08:11:50.477Z,99542.97
2022-12-22T08:14:18.632Z,99539.38
2022-12-22T08:16:46.612Z,99546.91
2022-12-22T08:19:15.177Z,99547.69
2022-12-22T08:21:48.498Z,99551.88
2022-12-22T08:24:22.011Z,99568.69
2022-12-22T08:26:55.688Z,99563.91
2022-12-22T08:29:33.745Z,99575.56
2022-12-22T08:32:02.291Z,99568.59
2022-12-22T08:34:31.272Z,99568.31
2022-12-22T08:37:02.855Z,99575.19
2022-12-22T08:39:37.705Z,99565.34
2022-12-22T08:42:09.320Z,99553.50
2022-12-22T08:44:40.874Z,99550.91
2022-12-22T08:47:16.443Z,99555.69
2022-12-22T08:49:45.375Z,99560.00
2022-12-22T08:52:18.461Z,99566.03
2022-12-22T08:54:47.346Z,99558.28
2022-12-22T08:57:15.485Z,99574.81
2022-12-22T08:59:43.533Z,99562.19
2022-12-22T09:02:11.518Z,99556.94
2022-12-22T09:04:39.685Z,99576.34
2022-12-22T09:07:07.838Z,99568.22
2022-12-22T09:09:36.011Z,99584.25
2022-12-22T09:12:04.456Z,99586.94
2022-12-22T09:14:33.500Z,99587.03
2022-12-22T09:17:01.486Z,99600.50
2022-12-22T09:19:29.949Z,99604.41
2022-12-22T09:21:58.105Z,99606.59
2022-12-22T09:24:25.978Z,99622.75
2022-12-22T09:26:54.242Z,99609.38
2022-12-22T09:29:22.570Z,99627.41
2022-12-22T09:31:50.875Z,99628.09
2022-12-22T09:34:19.124Z,99637.06
2022-12-22T09:36:48.506Z,99645.16
2022-12-22T09:39:17.162Z,99644.41
2022-12-22T09:41:53.796Z,99656.72
2022-12-22T09:44:39.956Z,99647.66
2022-12-22T09:47:29.329Z,99658.19
2022-12-22T09:49:58.198Z,99662.16
2022-12-22T09:52:35.329Z,99670.00
2022-12-22T09:55:12.625Z,99664.94
2022-12-22T09:57:40.661Z,99663.22
2022-12-22T10:00:21.591Z,99657.88
2022-12-22T10:03:30.080Z,99677.63
2022-12-22T10:06:34.751Z,99681.25
2022-12-22T10:09:48.078Z,99690.22
2022-12-22T10:12:21.586Z,99687.72
2022-12-22T10:14:53.247Z,99692.22
2022-12-22T10:17:29.399Z,99699.38
2022-12-22T10:20:21.640Z,99694.78
2022-12-22T10:23:02.741Z,99703.78
2022-12-22T10:26:26.778Z,99714.56
2022-12-22T10:28:42.722Z,99719.47
2022-12-22T10:31:24.801Z,99706.22
2022-12-22T10:33:58.014Z,99723.22
2022-12-22T10:36:31.640Z,99729.47
2022-12-22T10:39:08.015Z,99719.00
2022-12-22T10:41:47.620Z,99729.69
2022-12-22T10:44:44.369Z,99727.00
2022-12-22T10:47:23.921Z,99722.19
2022-12-22T10:52:31.928Z,99725.22
2022-12-22T10:55:25.868Z,99720.75
2022-12-22T10:58:18.541Z,99723.66
2022-12-22T11:01:05.123Z,99726.94
2022-12-22T11:03:33.324Z,99723.47
2022-12-22T11:06:01.675Z,99715.28
2022-12-22T11:08:32.022Z,99708.03
2022-12-22T11:11:08.628Z,99716.00
2022-12-22T11:13:41.913Z,99720.81
2022-12-22T11:16:17.975Z,99734.16
2022-12-22T11:19:50.286Z,99734.22
2022-12-22T11:23:25.760Z,99716.94
2022-12-22T11:26:08.604Z,99722.09
2022-12-22T11:29:05.984Z,99713.91
2022-12-22T11:32:32.671Z,99722.88
2022-12-22T11:35:26.184Z,99724.34
2022-12-22T11:38:12.879Z,99731.50
2022-12-22T11:40:46.819Z,99722.09
2022-12-22T11:44:00.687Z,99754.66
2022-12-22T11:47:11.174Z,99749.31
2022-12-22T11:49:53.237Z,99743.72
2022-12-22T11:53:16.542Z,99747.28
2022-12-22T11:56:27.376Z,99750.38
2022-12-22T11:59:14.622Z,99766.03
2022-12-22T12:02:22.544Z,99765.34
2022-12-22T12:05:35.782Z,99766.25
2022-12-22T12:08:42.351Z,99772.25
2022-12-22T12:11:58.865Z,99797.94
2022-12-22T12:14:58.874Z,99797.75
2022-12-22T12:17:56.022Z,99798.81
2022-12-22T12:20:29.715Z,99809.59
2022-12-22T12:24:00.278Z,99829.44
2022-12-22T12:26:44.527Z,99839.06
2022-12-22T12:29:35.615Z,99849.00
2022-12-22T12:32:11.220Z,99840.97
2022-12-22T12:34:52.726Z,99841.06
2022-12-22T12:37:30.390Z,99846.41
2022-12-22T12:40:16.622Z,99849.69
2022-12-22T12:42:47.175Z,99851.56
2022-12-22T12:45:41.677Z,99851.56
2022-12-22T12:48:22.034Z,99859.53
2022-12-22T12:50:57.730Z,99858.03
2022-12-22T12:53:30.231Z,99871.13
2022-12-22T12:56:01.912Z,99862.09
2022-12-22T12:58:37.776Z,99873.66
2022-12-22T13:01:34.344Z,99880.72
2022-12-22T13:04:04.684Z,99882.03
2022-12-22T13:06:53.340Z,99873.91
2022-12-22T13:09:50.047Z,99892.63
2022-12-22T13:12:49.436Z,99895.53
2022-12-22T13:15:37.794Z,99898.06
2022-12-22T13:18:26.277Z,99896.06
2022-12-22T13:24:33.316Z,99918.22
2022-12-22T13:27:06.993Z,99903.22
2022-12-22T13:29:47.815Z,99912.03
2022-12-22T13:32:34.803Z,99914.59
2022-12-22T13:35:31.454Z,99912.97
2022-12-22T13:38:00.992Z,99924.34
2022-12-22T13:40:43.736Z,99918.66
2022-12-22T13:43:17.953Z,99915.97
2022-12-22T13:45:52.911Z,99917.97
2022-12-22T13:48:25.349Z,99917.13
2022-12-22T13:50:57.880Z,99907.53
2022-12-22T13:54:07.658Z,99906.75
2022-12-22T13:56:51.732Z,99901.66
2022-12-22T13:59:35.525Z,99904.41
2022-12-22T14:02:16.816Z,99899.88
2022-12-22T14:05:12.435Z,99898.31
2022-12-22T14:07:40.581Z,99907.34
2022-12-22T14:10:10.666Z,99903.91
2022-12-22T14:12:46.162Z,99908.13
2022-12-22T14:15:20.170Z,99908.28
2022-12-22T14:17:52.648Z,99916.56
2022-12-22T14:20:38.107Z,99914.50
2022-12-22T14:23:21.267Z,99923.47
2022-12-22T14:25:51.187Z,99919.22
2022-12-22T14:28:37.829Z,99908.63
2022-12-22T14:31:07.674Z,99912.41
2022-12-22T14:33:36.302Z,99907.22
2022-12-22T14:36:27.453Z,99910.69
2022-12-22T14:39:02.343Z,99918.97
2022-12-22T14:41:52.059Z,99910.16
2022-12-22T14:44:29.876Z,99915.56
2022-12-22T14:47:12.241Z,99919.06
2022-12-22T14:50:18.281Z,99911.19
2022-12-22T14:52:59.655Z,99918.31
2022-12-22T14:55:39.793Z,99919.97
2022-12-22T14:58:13.159Z,99917.16
2022-12-22T15:00:47.776Z,99907.31
2022-12-22T15:03:36.427Z,99913.38
2022-12-22T15:06:25.216Z,99914.22
2022-12-22T15:09:09.337Z,99909.84
2022-12-22T15:11:48.049Z,99911.81
2022-12-22T15:14:25.868Z,99913.63
2022-12-22T15:17:02.511Z,99916.09
2022-12-22T15:19:36.848Z,99914.31
2022-12-22T15:22:08.548Z,99912.56
2022-12-22T15:24:36.446Z,99908.28
2022-12-22T15:27:04.644Z,99906.38
2022-12-22T15:29:32.877Z,99909.91
2022-12-22T15:32:02.339Z,99906.47
2022-12-22T15:34:32.758Z,99903.19
2022-12-22T15:37:00.655Z,99915.50
2022-12-22T15:39:28.841Z,99906.56
2022-12-22T15:41:56.864Z,99894.91
2022-12-22T15:44:25.037Z,99907.06
2022-12-22T15:46:57.906Z,99890.88
2022-12-22T15:49:29.549Z,99904.06
2022-12-22T15:52:04.682Z,99907.59
2022-12-22T15:54:33.749Z,99901.56
2022-12-22T15:57:02.358Z,99902.34
2022-12-22T15:59:31.030Z,99907.59
2022-12-22T16:02:01.694Z,99921.66
2022-12-22T16:04:30.501Z,99900.28
2022-12-22T16:06:59.804Z,99894.69
2022-12-22T16:09:38.267Z,99892.78
2022-12-22T16:12:14.962Z,99886.41
2022-12-22T16:14:50.538Z,99893.63
2022-12-22T16:17:27.644Z,99891.16
2022-12-22T16:19:55.773Z,99898.66
2022-12-22T16:22:33.940Z,99889.94
2022-12-22T16:25:07.432Z,99905.00
2022-12-22T16:27:35.921Z,99897.94
2022-12-22T16:30:05.131Z,99884.66
2022-12-22T16:32:33.488Z,99878.44
2022-12-22T16:35:19.064Z,99886.06
2022-12-22T16:37:51.145Z,99894.06
2022-12-22T16:40:20.026Z,99891.56
2022-12-22T16:45:57.700Z,99890.28
2022-12-22T16:48:38.643Z,99891.28
2022-12-22T16:51:25.255Z,99900.00
2022-12-22T16:53:53.656Z,99887.84
2022-12-22T16:56:26.964Z,99901.88
2022-12-22T16:58:55.190Z,99897.59
2022-12-22T17:01:43.958Z,99882.31
2022-12-22T17:04:24.422Z,99879.75
2022-12-22T17:06:54.081Z,99878.78
2022-12-22T17:09:40.829Z,99874.41
2022-12-22T17:12:19.367Z,99869.91
2022-12-22T17:14:48.111Z,99869.06
2022-12-22T17:17:30.822Z,99876.91
2022-12-22T17:20:00.160Z,99863.63
2022-12-22T17:22:31.398Z,99846.91
2022-12-22T17:25:04.938Z,99859.06
2022-12-22T17:27:35.335Z,99847.53
2022-12-22T17:30:04.784Z,99845.63
2022-12-22T17:32:32.708Z,99832.25
2022-12-22T17:35:00.733Z,99833.03
2022-12-22T17:37:29.447Z,99831.31
2022-12-22T17:40:01.472Z,99822.44
2022-12-22T17:42:31.673Z,99823.19
2022-12-22T17:44:59.659Z,99825.88
2022-12-22T17:47:33.363Z,99807.44
2022-12-22T17:50:02.856Z,99819.66
2022-12-22T17:52:30.881Z,99803.63
2022-12-22T17:54:59.255Z,99793.91
2022-12-22T17:57:34.985Z,99788.47
2022-12-22T18:00:04.195Z,99793.81
2022-12-22T18:02:39.674Z,99788.66
2022-12-22T18:05:24.531Z,99786.69
2022-12-22T18:07:58.732Z,99779.06
2022-12-22T18:10:36.914Z,99784.41
2022-12-22T18:13:14.043Z,99769.59
2022-12-22T18:15:41.956Z,99780.19
2022-12-22T18:18:16.125Z,99776.41
2022-12-22T18:20:46.960Z,99765.97
2022-12-22T18:23:36.520Z,99760.69
2022-12-22T18:26:08.416Z,99755.19
2022-12-22T18:28:36.987Z,99763.91
2022-12-22T18:31:05.172Z,99755.13
2022-12-22T18:33:33.400Z,99761.13
2022-12-22T18:36:01.558Z,99754.06
2022-12-22T18:38:35.190Z,99753.81
2022-12-22T18:41:03.447Z,99747.63
2022-12-22T18:43:32.011Z,99752.09
2022-12-22T18:46:00.053Z,99744.78
2022-12-22T18:48:27.979Z,99743.84
2022-12-22T18:51:00.882Z,99739.34
2022-12-22T18:53:31.325Z,99754.84
2022-12-22T18:55:59.902Z,99740.81
2022-12-22T18:58:27.868Z,99751.31
2022-12-22T19:00:56.365Z,99756.66
2022-12-22T19:03:29.495Z,99755.81
2022-12-22T19:05:58.701Z,99756.06
2022-12-22T19:08:31.495Z,99754.06
2022-12-22T19:11:05.122Z,99753.31
2022-12-22T19:13:40.631Z,99761.31
2022-12-22T19:16:20.797Z,99747.25
2022-12-22T19:18:48.839Z,99749.28
2022-12-22T19:21:18.839Z,99752.88
2022-12-22T19:23:47.320Z,99746.75
2022-12-22T19:26:26.912Z,99747.47
2022-12-22T19:29:01.258Z,99730.56
2022-12-22T19:31:40.228Z,99727.19
2022-12-22T19:34:18.466Z,99721.59
2022-12-22T19:36:49.328Z,99721.66
2022-12-22T19:39:21.369Z,99721.59
2022-12-22T19:41:54.514Z,99714.88
2022-12-22T19:44:28.370Z,99713.16
2022-12-22T19:47:00.306Z,99716.41
2022-12-22T19:49:29.820Z,99713.94
2022-12-22T19:51:59.078Z,99717.47
2022-12-22T19:54:28.595Z,99711.28
2022-12-22T19:56:58.670Z,99707.91
2022-12-22T19:59:42.991Z,99702.97
2022-12-22T20:02:31.874Z,99699.38
2022-12-22T20:05:01.002Z,99691.50
2022-12-22T20:07:37.262Z,99675.91
2022-12-22T20:10:06.514Z,99679.53
2022-12-22T20:12:38.972Z,99672.38
2022-12-22T20:15:35.684Z,99674.94
2022-12-22T20:18:45.494Z,99670.56
2022-12-22T20:21:23.261Z,99671.94
2022-12-22T20:23:55.478Z,99661.16
2022-12-22T20:26:27.853Z,99658.50
2022-12-22T20:28:56.873Z,99658.44
2022-12-22T20:31:28.166Z,99648.66
2022-12-22T20:33:57.151Z,99627.50
2022-12-22T20:36:32.223Z,99625.25
2022-12-22T20:39:11.880Z,99623.09
2022-12-22T20:41:40.372Z,99625.94
2022-12-22T20:44:08.580Z,99627.75
2022-12-22T20:46:40.372Z,99622.50
2022-12-22T20:49:17.003Z,99620.00
2022-12-22T20:51:46.227Z,99619.13
2022-12-22T20:54:15.619Z,99630.53
2022-12-22T20:56:45.389Z,99627.84
2022-12-22T20:59:19.596Z,99623.28
2022-12-22T21:01:49.618Z,99619.84
2022-12-22T21:04:19.023Z,99618.69
2022-12-22T21:06:51.944Z,99613.19
2022-12-22T21:09:20.555Z,99603.63
2022-12-22T21:11:49.476Z,99606.97
2022-12-22T21:14:17.633Z,99607.66
2022-12-22T21:16:45.787Z,99599.53
2022-12-22T21:19:18.393Z,99595.81
2022-12-22T21:21:47.300Z,99594.09
2022-12-22T21:24:15.592Z,99583.50
2022-12-22T21:26:49.987Z,99581.59
2022-12-22T21:29:23.839Z,99576.25
2022-12-22T21:31:52.250Z,99573.59
2022-12-22T21:34:20.938Z,99561.09
2022-12-22T21:36:57.065Z,99564.63
2022-12-22T21:39:45.064Z,99557.75
2022-12-22T21:42:18.435Z,99539.91
2022-12-22T21:44:46.902Z,99529.28
2022-12-22T21:47:19.868Z,99525.69
2022-12-22T21:49:48.466Z,99522.16
2022-12-22T21:52:16.705Z,99508.88
2022-12-22T21:54:45.021Z,99507.84
2022-12-22T21:57:16.857Z,99490.75
2022-12-22T21:59:44.962Z,99497.84
2022-12-22T22:02:18.327Z,99495.91
2022-12-22T22:04:52.066Z,99490.47
2022-12-22T22:07:22.639Z,99491.25
2022-12-22T22:09:50.710Z,99479.59
2022-12-22T22:12:33.995Z,99481.22
2022-12-22T22:15:03.102Z,99485.69
2022-12-22T22:17:31.308Z,99481.03
2022-12-22T22:19:59.556Z,99470.34
2022-12-22T22:22:27.558Z,99469.22
2022-12-22T22:24:55.661Z,99463.88
2022-12-22T22:27:23.655Z,99464.53
2022-12-22T22:29:51.706Z,99453.75
2022-12-22T22:32:19.709Z,99441.34
2022-12-22T22:34:47.550Z,99444.66
2022-12-22T22:37:15.592Z,99451.81
2022-12-22T22:39:43.851Z,99439.41
2022-12-22T22:42:11.821Z,99431.41
2022-12-22T22:44:39.931Z,99426.91
2022-12-22T22:47:07.926Z,99428.72
2022-12-22T22:49:36.130Z,99431.22
2022-12-22T22:52:04.233Z,99432.06
2022-12-22T22:54:32.857Z,99426.81
2022-12-22T22:57:01.164Z,99441.81
2022-12-22T22:59:29.168Z,99433.88
2022-12-22T23:01:57.085Z,99429.41
2022-12-22T23:04:25.284Z,99433.69
2022-12-22T23:06:53.171Z,99426.50
2022-12-22T23:09:21.206Z,99426.72
2022-12-22T23:11:52.743Z,99413.44
2022-12-22T23:14:21.867Z,99421.47
2022-12-22T23:16:50.043Z,99423.28
2022-12-22T23:19:18.674Z,99417.94
2022-12-22T23:21:46.845Z,99402.09
2022-12-22T23:24:16.084Z,99415.53
2022-12-22T23:26:43.869Z,99415.66
2022-12-22T23:29:11.688Z,99409.44
2022-12-22T23:31:39.779Z,99406.03
2022-12-22T23:34:07.763Z,99399.81
2022-12-22T23:36:35.544Z,99409.75
2022-12-22T23:39:03.958Z,99393.81
2022-12-22T23:41:32.025Z,99400.13
2022-12-22T23:43:59.881Z,99398.47
2022-12-22T23:46:27.679Z,99395.25
2022-12-22T23:48:57.900Z,99402.28
2022-12-22T23:51:28.375Z,99388.28
2022-12-22T23:53:59.087Z,99378.53
2022-12-22T23:56:31.000Z,99383.97
2022-12-22T23:58:59.197Z,99385.91
